createdAt,value
2022-09-16T00:00:52.386Z,9
2022-09-16T00:01:52.366Z,9.8
2022-09-16T00:02:52.332Z,6.1000000000000005
2022-09-16T00:03:52.324Z,8.8
2022-09-16T00:04:52.332Z,2.9000000000000004
2022-09-16T00:05:52.363Z,8.9
2022-09-16T00:06:52.333Z,11.3
2022-09-16T00:07:52.335Z,6.800000000000001
2022-09-16T00:08:52.436Z,4.3
2022-09-16T00:09:52.335Z,0
2022-09-16T00:10:52.354Z,9.3
2022-09-16T00:11:52.336Z,5.7
2022-09-16T00:12:52.347Z,5.4
2022-09-16T00:13:52.344Z,4.5
2022-09-16T00:14:52.339Z,9.1
2022-09-16T00:15:52.388Z,7.9
2022-09-16T00:16:52.339Z,8.200000000000001
2022-09-16T00:17:52.344Z,6.300000000000001
2022-09-16T00:18:52.348Z,9.600000000000001
2022-09-16T00:19:52.349Z,9.4
2022-09-16T00:20:52.344Z,8.4
2022-09-16T00:21:52.376Z,4.800000000000001
2022-09-16T00:22:52.349Z,10.200000000000001
2022-09-16T00:23:52.350Z,6.1000000000000005
2022-09-16T00:24:52.350Z,7.5
2022-09-16T00:25:52.347Z,6.9
2022-09-16T00:26:52.352Z,4.3
2022-09-16T00:27:52.356Z,7.2
2022-09-16T00:28:52.354Z,5.4
2022-09-16T00:29:52.400Z,5.300000000000001
2022-09-16T00:30:52.354Z,4.9
2022-09-16T00:31:52.408Z,4.9
2022-09-16T00:32:52.365Z,4.5
2022-09-16T00:33:52.357Z,8
2022-09-16T00:34:52.362Z,6.800000000000001
2022-09-16T00:35:52.365Z,5.800000000000001
2022-09-16T00:36:52.358Z,2
2022-09-16T00:37:52.396Z,2.2
2022-09-16T00:38:52.378Z,5.4
2022-09-16T00:39:52.396Z,11.700000000000001
2022-09-16T00:40:52.370Z,7.800000000000001
2022-09-16T00:41:52.366Z,13.8
2022-09-16T00:42:52.368Z,10.4
2022-09-16T00:43:52.386Z,8.5
2022-09-16T00:44:52.367Z,6.2
2022-09-16T00:45:52.378Z,7.5
2022-09-16T00:46:52.422Z,5.6000000000000005
2022-09-16T00:47:52.372Z,4
2022-09-16T00:48:52.383Z,7.1000000000000005
2022-09-16T00:49:52.381Z,9.600000000000001
2022-09-16T00:50:52.382Z,7.4
2022-09-16T00:51:52.390Z,11.200000000000001
2022-09-16T00:52:52.384Z,2.8000000000000003
2022-09-16T00:53:52.428Z,10.100000000000001
2022-09-16T00:54:52.388Z,5.4
2022-09-16T00:55:52.395Z,9.8
2022-09-16T00:56:52.395Z,7
2022-09-16T00:57:52.395Z,10.5
2022-09-16T00:58:52.403Z,10.700000000000001
2022-09-16T00:59:52.399Z,7.9
2022-09-16T01:00:52.451Z,3
2022-09-16T01:01:52.432Z,6.800000000000001
2022-09-16T01:02:52.407Z,5.9
2022-09-16T01:03:52.409Z,4.4
2022-09-16T01:04:52.417Z,5.800000000000001
2022-09-16T01:05:52.406Z,7.9
2022-09-16T01:06:52.409Z,6.800000000000001
2022-09-16T01:07:52.411Z,9.1
2022-09-16T01:08:52.412Z,11
2022-09-16T01:09:52.442Z,12.3
2022-09-16T01:10:52.411Z,9.1
2022-09-16T01:11:52.419Z,12.700000000000001
2022-09-16T01:12:52.413Z,7.800000000000001
2022-09-16T01:13:52.424Z,11
2022-09-16T01:14:52.416Z,8.5
2022-09-16T01:15:52.467Z,14.100000000000001
2022-09-16T01:16:52.422Z,10.700000000000001
2022-09-16T01:17:52.424Z,15.200000000000001
2022-09-16T01:18:52.433Z,7.7
2022-09-16T01:19:52.428Z,8.4
2022-09-16T01:20:52.435Z,8.4
2022-09-16T01:21:52.432Z,10.700000000000001
2022-09-16T01:22:52.442Z,15.200000000000001
2022-09-16T01:23:52.509Z,10.3
2022-09-16T01:24:52.436Z,11.4
2022-09-16T01:25:52.472Z,14.8
2022-09-16T01:26:52.437Z,11.200000000000001
2022-09-16T01:27:52.443Z,10.700000000000001
2022-09-16T01:28:52.449Z,18.2
2022-09-16T01:29:52.448Z,11
2022-09-16T01:30:52.439Z,9.8
2022-09-16T01:31:52.458Z,11.700000000000001
2022-09-16T01:32:52.449Z,10.200000000000001
2022-09-16T01:33:52.448Z,9.3
2022-09-16T01:34:52.446Z,5.9
2022-09-16T01:35:52.450Z,11.3
2022-09-16T01:36:52.448Z,10.5
2022-09-16T01:37:52.450Z,7.6000000000000005
2022-09-16T01:38:52.488Z,10.8
2022-09-16T01:39:52.475Z,5.6000000000000005
2022-09-16T01:40:52.452Z,6.5
2022-09-16T01:41:52.483Z,9.1
2022-09-16T01:42:52.460Z,8.8
2022-09-16T01:43:52.459Z,7.800000000000001
2022-09-16T01:44:52.457Z,11
2022-09-16T01:45:52.453Z,8.4
2022-09-16T01:46:52.489Z,10
2022-09-16T01:47:52.460Z,8.8
2022-09-16T01:48:53.831Z,8.8
2022-09-16T01:49:52.468Z,8.8
2022-09-16T01:50:52.473Z,7.9
2022-09-16T01:51:52.459Z,5.6000000000000005
2022-09-16T01:52:52.472Z,5.7
2022-09-16T01:53:52.482Z,9.1
2022-09-16T01:54:52.481Z,8.1
2022-09-16T01:55:52.472Z,6.800000000000001
2022-09-16T01:56:52.469Z,8.4
2022-09-16T01:57:52.493Z,4.5
2022-09-16T01:58:52.485Z,12
2022-09-16T01:59:52.485Z,7.300000000000001
2022-09-16T02:00:52.477Z,8.1
2022-09-16T02:01:52.566Z,9.8
2022-09-16T02:02:52.523Z,9.600000000000001
2022-09-16T02:03:52.482Z,6.5
2022-09-16T02:04:52.482Z,6.9
2022-09-16T02:05:52.484Z,11.100000000000001
2022-09-16T02:06:52.481Z,8.8
2022-09-16T02:07:52.504Z,7.9
2022-09-16T02:08:52.501Z,11.600000000000001
2022-09-16T02:09:52.495Z,6.7
2022-09-16T02:10:52.499Z,9.600000000000001
2022-09-16T02:11:52.501Z,12
2022-09-16T02:12:52.501Z,9.5
2022-09-16T02:13:52.516Z,6.9
2022-09-16T02:14:52.498Z,8.200000000000001
2022-09-16T02:15:52.529Z,9.4
2022-09-16T02:16:52.514Z,4.6000000000000005
2022-09-16T02:17:52.503Z,8.6
2022-09-16T02:18:52.500Z,5.4
2022-09-16T02:19:52.508Z,7.2
2022-09-16T02:20:52.505Z,7
2022-09-16T02:21:52.518Z,7.9
2022-09-16T02:22:52.509Z,8.1
2022-09-16T02:23:52.509Z,10
2022-09-16T02:24:52.507Z,10.4
2022-09-16T02:25:52.511Z,5.9
2022-09-16T02:26:52.508Z,4.800000000000001
2022-09-16T02:27:52.514Z,8.1
2022-09-16T02:28:52.516Z,5.800000000000001
2022-09-16T02:29:52.541Z,11.200000000000001
2022-09-16T02:30:52.523Z,6.9
2022-09-16T02:31:55.688Z,7.7
2022-09-16T02:32:52.510Z,6.1000000000000005
2022-09-16T02:33:52.509Z,3.1
2022-09-16T02:34:52.512Z,4.4
2022-09-16T02:35:52.515Z,2.4000000000000004
2022-09-16T02:36:52.511Z,2.1
2022-09-16T02:37:52.512Z,2.6
2022-09-16T02:38:52.567Z,7.300000000000001
2022-09-16T02:39:52.555Z,4.800000000000001
2022-09-16T02:40:52.511Z,6.2
2022-09-16T02:41:52.519Z,3
2022-09-16T02:42:52.518Z,5.300000000000001
2022-09-16T02:43:52.517Z,3.9000000000000004
2022-09-16T02:44:52.528Z,5.9
2022-09-16T02:45:52.550Z,8.1
2022-09-16T02:46:52.531Z,7.7
2022-09-16T02:47:52.526Z,3.5
2022-09-16T02:48:52.536Z,9.8
2022-09-16T02:49:52.527Z,11.200000000000001
2022-09-16T02:50:52.537Z,8.1
2022-09-16T02:51:52.528Z,6
2022-09-16T02:52:52.540Z,6.800000000000001
2022-09-16T02:53:52.536Z,6.800000000000001
2022-09-16T02:54:52.530Z,4.800000000000001
2022-09-16T02:55:52.533Z,4.4
2022-09-16T02:56:52.538Z,3.9000000000000004
2022-09-16T02:57:52.538Z,5.4
2022-09-16T02:58:52.539Z,4.3
2022-09-16T02:59:52.527Z,6.6000000000000005
2022-09-16T03:00:52.544Z,9.600000000000001
2022-09-16T03:01:52.715Z,8.200000000000001
2022-09-16T03:02:52.584Z,8.700000000000001
2022-09-16T03:03:52.533Z,6.2
2022-09-16T03:04:52.549Z,6.2
2022-09-16T03:05:52.552Z,5
2022-09-16T03:06:52.545Z,6.5
2022-09-16T03:07:52.541Z,5.2
2022-09-16T03:08:52.554Z,6
2022-09-16T03:09:52.550Z,7.9
2022-09-16T03:10:52.545Z,4.4
2022-09-16T03:11:52.547Z,5.1000000000000005
2022-09-16T03:12:52.556Z,5.9
2022-09-16T03:13:52.549Z,8.5
2022-09-16T03:14:52.562Z,5.4
2022-09-16T03:15:52.623Z,7.6000000000000005
2022-09-16T03:16:52.545Z,6
2022-09-16T03:17:52.583Z,5.9
2022-09-16T03:18:52.560Z,5.5
2022-09-16T03:19:52.565Z,1
2022-09-16T03:20:52.561Z,7.1000000000000005
2022-09-16T03:21:52.558Z,6.6000000000000005
2022-09-16T03:22:52.554Z,4.9
2022-09-16T03:23:52.585Z,4
2022-09-16T03:24:52.557Z,5.4
2022-09-16T03:25:52.569Z,0.9
2022-09-16T03:26:52.561Z,5
2022-09-16T03:27:52.561Z,0
2022-09-16T03:28:52.562Z,0
2022-09-16T03:29:52.553Z,2.1
2022-09-16T03:30:52.613Z,0
2022-09-16T03:31:52.564Z,0
2022-09-16T03:32:52.556Z,0
2022-09-16T03:33:52.588Z,0
2022-09-16T03:34:52.559Z,0
2022-09-16T03:35:52.572Z,0
2022-09-16T03:36:52.561Z,0
2022-09-16T03:37:52.565Z,0
2022-09-16T03:38:52.646Z,0
2022-09-16T03:39:52.617Z,0
2022-09-16T03:40:52.566Z,0
2022-09-16T03:41:52.567Z,0
2022-09-16T03:42:52.567Z,0
2022-09-16T03:43:52.574Z,0
2022-09-16T03:44:52.564Z,0
2022-09-16T03:45:52.611Z,0
2022-09-16T03:46:52.572Z,0
2022-09-16T03:47:52.570Z,0
2022-09-16T03:48:52.578Z,0
2022-09-16T03:49:52.601Z,0
2022-09-16T03:50:52.580Z,0
2022-09-16T03:51:52.574Z,0
2022-09-16T03:52:52.575Z,0
2022-09-16T03:53:52.594Z,0
2022-09-16T03:54:52.573Z,0
2022-09-16T03:55:52.578Z,0
2022-09-16T03:56:52.578Z,0
2022-09-16T03:57:52.573Z,0
2022-09-16T03:58:52.575Z,0
2022-09-16T03:59:52.571Z,0
2022-09-16T04:00:52.573Z,0
2022-09-16T04:01:52.659Z,0
2022-09-16T04:02:52.608Z,0
2022-09-16T04:03:52.573Z,0
2022-09-16T04:04:52.566Z,0
2022-09-16T04:05:52.602Z,0
2022-09-16T04:06:52.576Z,0
2022-09-16T04:07:52.578Z,0
2022-09-16T04:08:52.633Z,0
2022-09-16T04:09:52.583Z,0
2022-09-16T04:10:52.587Z,0
2022-09-16T04:11:52.581Z,0
2022-09-16T04:12:52.592Z,0
2022-09-16T04:13:52.586Z,0
2022-09-16T04:14:52.583Z,0
2022-09-16T04:15:52.617Z,0
2022-09-16T04:16:52.586Z,0
2022-09-16T04:17:52.593Z,0
2022-09-16T04:18:52.584Z,0
2022-09-16T04:19:52.605Z,0
2022-09-16T04:20:52.602Z,0
2022-09-16T04:21:52.611Z,0
2022-09-16T04:22:52.598Z,0
2022-09-16T04:23:52.593Z,0
2022-09-16T04:24:52.608Z,0
2022-09-16T04:25:52.600Z,0
2022-09-16T04:26:52.603Z,0
2022-09-16T04:27:52.605Z,0
2022-09-16T04:28:52.597Z,0
2022-09-16T04:29:52.604Z,0
2022-09-16T04:30:52.663Z,0
2022-09-16T04:31:52.608Z,0
2022-09-16T04:32:52.609Z,0
2022-09-16T04:33:52.617Z,0
2022-09-16T04:34:52.608Z,0
2022-09-16T04:35:52.608Z,0
2022-09-16T04:36:52.618Z,0
2022-09-16T04:37:52.641Z,0
2022-09-16T04:38:52.717Z,0
2022-09-16T04:39:52.638Z,0
2022-09-16T04:40:52.615Z,0
2022-09-16T04:41:52.614Z,0
2022-09-16T04:42:52.625Z,0
2022-09-16T04:43:52.624Z,0
2022-09-16T04:44:52.621Z,0
2022-09-16T04:45:52.708Z,0
2022-09-16T04:46:52.622Z,0
2022-09-16T04:47:52.628Z,0
2022-09-16T04:48:52.639Z,4.2
2022-09-16T04:49:52.632Z,3.8000000000000003
2022-09-16T04:50:52.629Z,1.6
2022-09-16T04:51:52.640Z,4.2
2022-09-16T04:52:52.636Z,4.800000000000001
2022-09-16T04:53:52.659Z,2.5
2022-09-16T04:54:52.636Z,5.4
2022-09-16T04:55:52.636Z,7.1000000000000005
2022-09-16T04:56:52.641Z,8.5
2022-09-16T04:57:52.640Z,5.300000000000001
2022-09-16T04:58:52.634Z,2
2022-09-16T04:59:52.631Z,4.4
2022-09-16T05:00:52.651Z,2.4000000000000004
2022-09-16T05:01:52.715Z,0
2022-09-16T05:02:52.656Z,0
2022-09-16T05:03:52.652Z,0
2022-09-16T05:04:52.647Z,0
2022-09-16T05:05:52.642Z,2.7
2022-09-16T05:06:52.646Z,0
2022-09-16T05:07:52.646Z,1.3
2022-09-16T05:08:52.765Z,2.5
2022-09-16T05:09:52.672Z,2.1
2022-09-16T05:10:52.648Z,2.8000000000000003
2022-09-16T05:11:52.649Z,4.3
2022-09-16T05:12:52.650Z,5.2
2022-09-16T05:13:52.648Z,3.7
2022-09-16T05:14:52.657Z,6.9
2022-09-16T05:15:52.715Z,6
2022-09-16T05:16:52.654Z,3.4000000000000004
2022-09-16T05:17:52.663Z,4.1000000000000005
2022-09-16T05:18:52.657Z,5.6000000000000005
2022-09-16T05:19:52.656Z,4.4
2022-09-16T05:20:52.687Z,2.1
2022-09-16T05:21:52.660Z,4.7
2022-09-16T05:22:52.658Z,4.4
2022-09-16T05:23:52.664Z,2.6
2022-09-16T05:24:52.672Z,3.7
2022-09-16T05:25:52.795Z,4
2022-09-16T05:26:52.669Z,2.7
2022-09-16T05:27:52.670Z,3.9000000000000004
2022-09-16T05:28:52.671Z,3.7
2022-09-16T05:29:52.673Z,5.2
2022-09-16T05:30:52.709Z,6.300000000000001
2022-09-16T05:31:52.685Z,4.3
2022-09-16T05:32:52.676Z,9.1
2022-09-16T05:33:52.735Z,7.1000000000000005
2022-09-16T05:34:52.684Z,6.7
2022-09-16T05:35:52.691Z,4.800000000000001
2022-09-16T05:36:52.688Z,3.7
2022-09-16T05:37:52.687Z,3.1
2022-09-16T05:39:11.410Z,5
2022-09-16T05:39:52.716Z,5
2022-09-16T05:40:52.690Z,7.1000000000000005
2022-09-16T05:41:52.819Z,10
2022-09-16T05:42:52.690Z,6
2022-09-16T05:43:52.696Z,3.4000000000000004
2022-09-16T05:44:52.699Z,5.9
2022-09-16T05:45:52.781Z,5.7
2022-09-16T05:46:52.698Z,5.800000000000001
2022-09-16T05:47:52.700Z,3.9000000000000004
2022-09-16T05:48:52.701Z,6.300000000000001
2022-09-16T05:49:52.696Z,6.6000000000000005
2022-09-16T05:50:52.700Z,6.6000000000000005
2022-09-16T05:51:52.702Z,8.4
2022-09-16T05:52:52.702Z,5.1000000000000005
2022-09-16T05:53:52.714Z,5.6000000000000005
2022-09-16T05:54:52.704Z,4.4
2022-09-16T05:55:52.707Z,3.3000000000000003
2022-09-16T05:56:52.708Z,2.6
2022-09-16T05:57:52.827Z,11.600000000000001
2022-09-16T05:58:52.711Z,9.1
2022-09-16T05:59:52.709Z,5.4
2022-09-16T06:00:52.712Z,4.7
2022-09-16T06:01:52.772Z,2.7
2022-09-16T06:02:52.783Z,5.2
2022-09-16T06:03:52.715Z,3.5
2022-09-16T06:04:52.715Z,4
2022-09-16T06:05:52.722Z,4.4
2022-09-16T06:06:52.723Z,6.2
2022-09-16T06:07:52.731Z,3.2
2022-09-16T06:08:52.720Z,5.300000000000001
2022-09-16T06:09:52.732Z,5.6000000000000005
2022-09-16T06:10:52.723Z,4.3
2022-09-16T06:11:55.566Z,7.7
2022-09-16T06:12:52.734Z,8.1
2022-09-16T06:13:52.852Z,9.4
2022-09-16T06:14:52.731Z,4.3
2022-09-16T06:15:52.781Z,4
2022-09-16T06:16:52.737Z,7.7
2022-09-16T06:17:52.743Z,5.6000000000000005
2022-09-16T06:18:52.729Z,6.2
2022-09-16T06:19:52.729Z,8.8
2022-09-16T06:20:52.742Z,3.6
2022-09-16T06:21:52.740Z,4.9
2022-09-16T06:22:52.763Z,2.2
2022-09-16T06:23:52.737Z,0.8
2022-09-16T06:24:52.750Z,2.6
2022-09-16T06:25:52.744Z,5.2
2022-09-16T06:26:52.743Z,1.8
2022-09-16T06:27:52.746Z,3.7
2022-09-16T06:28:52.749Z,3.3000000000000003
2022-09-16T06:29:52.875Z,3.1
2022-09-16T06:30:52.748Z,1.7000000000000002
2022-09-16T06:31:52.750Z,2.7
2022-09-16T06:32:52.752Z,1.6
2022-09-16T06:33:52.759Z,0
2022-09-16T06:34:52.752Z,0
2022-09-16T06:35:52.749Z,0
2022-09-16T06:36:52.759Z,0
2022-09-16T06:37:52.771Z,0
2022-09-16T06:38:52.761Z,0
2022-09-16T06:39:52.779Z,2
2022-09-16T06:40:52.757Z,2.7
2022-09-16T06:41:52.759Z,0
2022-09-16T06:42:54.437Z,0
2022-09-16T06:43:52.769Z,0
2022-09-16T06:44:52.757Z,0
2022-09-16T06:45:52.917Z,4.5
2022-09-16T06:46:52.767Z,7.2
2022-09-16T06:47:52.761Z,5.1000000000000005
2022-09-16T06:48:52.775Z,6
2022-09-16T06:49:52.766Z,7.4
2022-09-16T06:50:52.767Z,3.1
2022-09-16T06:51:52.759Z,3.5
2022-09-16T06:52:52.769Z,3.7
2022-09-16T06:53:52.777Z,4.9
2022-09-16T06:54:52.767Z,6
2022-09-16T06:55:52.764Z,2.5
2022-09-16T06:56:52.776Z,1.5
2022-09-16T06:57:52.773Z,3.9000000000000004
2022-09-16T06:58:52.774Z,1.5
2022-09-16T06:59:52.769Z,1.3
2022-09-16T07:00:52.801Z,4.800000000000001
2022-09-16T07:01:52.957Z,3.2
2022-09-16T07:02:52.786Z,4.1000000000000005
2022-09-16T07:03:52.844Z,7.7
2022-09-16T07:04:52.790Z,4
2022-09-16T07:05:52.786Z,5.1000000000000005
2022-09-16T07:07:09.906Z,1.2000000000000002
2022-09-16T07:07:52.786Z,0
2022-09-16T07:08:52.787Z,3.7
2022-09-16T07:09:52.790Z,4
2022-09-16T07:10:52.795Z,6.2
2022-09-16T07:11:52.806Z,7.6000000000000005
2022-09-16T07:12:52.796Z,5.1000000000000005
2022-09-16T07:13:52.793Z,6.2
2022-09-16T07:14:52.802Z,6.4
2022-09-16T07:16:21.404Z,7.1000000000000005
2022-09-16T07:16:52.889Z,3.7
2022-09-16T07:17:52.918Z,4.4
2022-09-16T07:18:54.603Z,9.3
2022-09-16T07:19:52.804Z,7.300000000000001
2022-09-16T07:20:52.801Z,6.9
2022-09-16T07:21:52.805Z,8.1
2022-09-16T07:22:52.798Z,4.3
2022-09-16T07:23:52.803Z,1.7000000000000002
2022-09-16T07:24:52.812Z,6.1000000000000005
2022-09-16T07:25:52.807Z,5
2022-09-16T07:26:52.803Z,7
2022-09-16T07:27:52.805Z,7.2
2022-09-16T07:28:52.835Z,4.6000000000000005
2022-09-16T07:29:52.809Z,7.9
2022-09-16T07:30:52.896Z,6.800000000000001
2022-09-16T07:31:52.827Z,4.6000000000000005
2022-09-16T07:32:52.814Z,6.9
2022-09-16T07:33:53.002Z,4.7
2022-09-16T07:34:52.814Z,7.7
2022-09-16T07:35:52.823Z,6
2022-09-16T07:36:52.823Z,4.5
2022-09-16T07:37:52.841Z,8.200000000000001
2022-09-16T07:38:52.818Z,2.5
2022-09-16T07:39:52.840Z,7.4
2022-09-16T07:40:52.818Z,9.1
2022-09-16T07:41:52.824Z,6
2022-09-16T07:42:52.828Z,12.700000000000001
2022-09-16T07:43:52.840Z,3.4000000000000004
2022-09-16T07:44:52.823Z,8.700000000000001
2022-09-16T07:45:52.857Z,5.2
2022-09-16T07:46:52.824Z,4.6000000000000005
2022-09-16T07:47:52.828Z,12.8
2022-09-16T07:48:52.835Z,7.7
2022-09-16T07:49:52.950Z,8
2022-09-16T07:50:52.841Z,6.2
2022-09-16T07:51:52.832Z,12.5
2022-09-16T07:52:52.836Z,11.4
2022-09-16T07:53:52.953Z,9.5
2022-09-16T07:54:52.844Z,4
2022-09-16T07:55:52.838Z,8.700000000000001
2022-09-16T07:56:52.837Z,7.5
2022-09-16T07:57:52.832Z,7.6000000000000005
2022-09-16T07:58:52.841Z,8
2022-09-16T07:59:52.838Z,9.5
2022-09-16T08:00:52.881Z,6.4
2022-09-16T08:01:52.945Z,5.1000000000000005
2022-09-16T08:02:52.886Z,6
2022-09-16T08:03:52.845Z,8.700000000000001
2022-09-16T08:04:52.846Z,4.9
2022-09-16T08:05:52.962Z,8.5
2022-09-16T08:06:52.843Z,8.8
2022-09-16T08:07:52.844Z,6.5
2022-09-16T08:08:52.969Z,5.4
2022-09-16T08:09:53.170Z,5.5
2022-09-16T08:10:52.870Z,1.9000000000000001
2022-09-16T08:11:52.861Z,7.2
2022-09-16T08:12:52.846Z,4.5
2022-09-16T08:13:52.844Z,6.2
2022-09-16T08:14:52.849Z,8.9
2022-09-16T08:15:52.850Z,7.800000000000001
2022-09-16T08:16:52.898Z,6.5
2022-09-16T08:17:52.849Z,5.2
2022-09-16T08:18:52.947Z,1
2022-09-16T08:19:52.854Z,5.5
2022-09-16T08:20:52.849Z,3.1
2022-09-16T08:21:52.980Z,5.5
2022-09-16T08:22:57.330Z,5.2
2022-09-16T08:23:52.849Z,0.9
2022-09-16T08:24:52.858Z,3.2
2022-09-16T08:25:52.855Z,4.4
2022-09-16T08:26:52.895Z,2.6
2022-09-16T08:27:54.196Z,5.2
2022-09-16T08:29:09.623Z,2.2
2022-09-16T08:29:52.850Z,4.7
2022-09-16T08:30:53.311Z,3.7
2022-09-16T08:31:52.915Z,2.5
2022-09-16T08:32:52.857Z,5.300000000000001
2022-09-16T08:33:52.903Z,4.1000000000000005
2022-09-16T08:34:52.846Z,4.9
2022-09-16T08:35:52.848Z,2.5
2022-09-16T08:36:52.846Z,3
2022-09-16T08:37:52.985Z,6.6000000000000005
2022-09-16T08:38:52.854Z,3.2
2022-09-16T08:39:52.893Z,3.2
2022-09-16T08:40:52.856Z,3.6
2022-09-16T08:41:52.859Z,4.3
2022-09-16T08:42:52.847Z,3.4000000000000004
2022-09-16T08:43:52.887Z,3.2
2022-09-16T08:44:52.862Z,0
2022-09-16T08:45:52.933Z,6
2022-09-16T08:46:52.856Z,4.1000000000000005
2022-09-16T08:47:52.860Z,4.4
2022-09-16T08:48:52.858Z,5
2022-09-16T08:49:52.858Z,5.7
2022-09-16T08:50:52.855Z,0
2022-09-16T08:51:52.855Z,0
2022-09-16T08:52:52.866Z,0
2022-09-16T08:53:53.003Z,0
2022-09-16T08:54:52.872Z,5.300000000000001
2022-09-16T08:55:52.865Z,0.7000000000000001
2022-09-16T08:56:52.871Z,0
2022-09-16T08:57:52.874Z,3
2022-09-16T08:58:52.874Z,0
2022-09-16T08:59:52.879Z,0
2022-09-16T09:00:52.931Z,0
2022-09-16T09:01:53.288Z,0
2022-09-16T09:02:52.942Z,0
2022-09-16T09:03:52.880Z,0
2022-09-16T09:04:52.886Z,0
2022-09-16T09:05:52.888Z,0
2022-09-16T09:06:52.882Z,0
2022-09-16T09:07:52.896Z,0
2022-09-16T09:08:52.891Z,0
2022-09-16T09:09:53.021Z,0
2022-09-16T09:10:52.924Z,0
2022-09-16T09:11:53.163Z,0
2022-09-16T09:12:53.989Z,0
2022-09-16T09:13:52.894Z,0
2022-09-16T09:14:52.884Z,0
2022-09-16T09:15:52.900Z,0
2022-09-16T09:16:52.946Z,0
2022-09-16T09:17:52.900Z,0
2022-09-16T09:18:52.944Z,0
2022-09-16T09:19:52.907Z,0
2022-09-16T09:20:52.902Z,0
2022-09-16T09:21:52.898Z,0
2022-09-16T09:22:52.898Z,0
2022-09-16T09:23:52.965Z,0
2022-09-16T09:24:56.548Z,0
2022-09-16T09:25:53.064Z,0
2022-09-16T09:26:52.914Z,0
2022-09-16T09:27:52.908Z,0
2022-09-16T09:28:52.911Z,1.4000000000000001
2022-09-16T09:29:52.913Z,0
2022-09-16T09:30:52.911Z,3.6
2022-09-16T09:31:52.946Z,6
2022-09-16T09:32:52.919Z,1.3
2022-09-16T09:34:52.922Z,4.2
2022-09-16T09:35:52.914Z,1.8
2022-09-16T09:36:52.933Z,0
2022-09-16T09:37:52.917Z,0
2022-09-16T09:38:52.968Z,0
2022-09-16T09:39:52.961Z,0
2022-09-16T09:40:52.931Z,0
2022-09-16T09:41:53.075Z,0
2022-09-16T09:42:52.931Z,0
2022-09-16T09:43:52.941Z,0
2022-09-16T09:44:53.861Z,0
2022-09-16T09:45:52.972Z,0
2022-09-16T09:46:52.935Z,0
2022-09-16T09:47:52.936Z,0
2022-09-16T09:48:52.939Z,0
2022-09-16T09:49:52.934Z,0
2022-09-16T09:50:52.944Z,0
2022-09-16T09:51:52.952Z,0
2022-09-16T09:52:52.952Z,0
2022-09-16T09:53:53.074Z,0
2022-09-16T09:54:52.960Z,0
2022-09-16T09:55:52.948Z,0
2022-09-16T09:56:52.958Z,0
2022-09-16T09:57:53.137Z,0
2022-09-16T09:58:52.951Z,0
2022-09-16T09:59:52.963Z,0
2022-09-16T10:00:53.081Z,0
2022-09-16T10:01:53.009Z,0
2022-09-16T10:02:52.969Z,0
2022-09-16T10:03:52.964Z,0
2022-09-16T10:04:52.961Z,0
2022-09-16T10:05:52.971Z,0
2022-09-16T10:06:53.019Z,0
2022-09-16T10:07:52.969Z,0
2022-09-16T10:08:53.015Z,0
2022-09-16T10:09:52.959Z,0
2022-09-16T10:10:52.978Z,0
2022-09-16T10:11:52.969Z,0
2022-09-16T10:12:52.972Z,0
2022-09-16T10:13:53.117Z,0
2022-09-16T10:14:52.967Z,2.5
2022-09-16T10:15:53.443Z,2.5
2022-09-16T10:16:52.973Z,0
2022-09-16T10:17:52.980Z,0.9
2022-09-16T10:18:52.985Z,0
2022-09-16T10:19:52.982Z,0
2022-09-16T10:20:52.987Z,0
2022-09-16T10:21:52.989Z,0
2022-09-16T10:22:52.993Z,0
2022-09-16T10:23:53.110Z,0
2022-09-16T10:24:52.974Z,4.5
2022-09-16T10:25:52.986Z,0.4
2022-09-16T10:26:52.983Z,0
2022-09-16T10:27:52.989Z,0
2022-09-16T10:28:52.980Z,0
2022-09-16T10:29:53.126Z,0
2022-09-16T10:30:52.989Z,0
2022-09-16T10:31:53.066Z,0
2022-09-16T10:32:52.992Z,0
2022-09-16T10:33:53.047Z,0
2022-09-16T10:34:52.991Z,0
2022-09-16T10:35:52.992Z,0
2022-09-16T10:36:52.993Z,0
2022-09-16T10:37:52.991Z,0
2022-09-16T10:38:52.998Z,0
2022-09-16T10:39:53.052Z,0
2022-09-16T10:40:53.004Z,0
2022-09-16T10:41:52.999Z,0
2022-09-16T10:42:53.002Z,0
2022-09-16T10:43:53.002Z,0
2022-09-16T10:44:53.004Z,0
2022-09-16T10:45:53.183Z,0
2022-09-16T10:46:53.014Z,0
2022-09-16T10:47:53.027Z,0
2022-09-16T10:48:53.064Z,1.7000000000000002
2022-09-16T10:49:53.012Z,3.4000000000000004
2022-09-16T10:50:53.015Z,0
2022-09-16T10:51:53.016Z,0
2022-09-16T10:52:53.009Z,5.5
2022-09-16T10:53:53.027Z,7.1000000000000005
2022-09-16T10:54:53.015Z,5.300000000000001
2022-09-16T10:55:53.014Z,3.1
2022-09-16T10:56:53.014Z,0
2022-09-16T10:57:53.011Z,0
2022-09-16T10:58:53.021Z,7.6000000000000005
2022-09-16T10:59:53.019Z,7
2022-09-16T11:00:53.095Z,6
2022-09-16T11:01:53.508Z,1.2000000000000002
2022-09-16T11:02:53.029Z,0.9
2022-09-16T11:03:53.057Z,7.6000000000000005
2022-09-16T11:04:53.017Z,6.4
2022-09-16T11:05:53.022Z,4.5
2022-09-16T11:06:53.021Z,4.7
2022-09-16T11:07:53.028Z,1.6
2022-09-16T11:08:53.028Z,7.4
2022-09-16T11:09:53.022Z,1.8
2022-09-16T11:10:53.029Z,3.4000000000000004
2022-09-16T11:11:53.027Z,5.1000000000000005
2022-09-16T11:12:53.023Z,4.7
2022-09-16T11:13:53.062Z,7.2
2022-09-16T11:14:53.030Z,5.2
2022-09-16T11:15:53.070Z,2.4000000000000004
2022-09-16T11:16:53.044Z,7.300000000000001
2022-09-16T11:17:53.175Z,4.9
2022-09-16T11:18:53.149Z,5.300000000000001
2022-09-16T11:19:53.037Z,2.6
2022-09-16T11:20:53.041Z,8.9
2022-09-16T11:21:53.045Z,6.5
2022-09-16T11:22:53.048Z,4.800000000000001
2022-09-16T11:23:53.047Z,6.4
2022-09-16T11:24:53.039Z,5.9
2022-09-16T11:25:53.054Z,4
2022-09-16T11:26:53.041Z,5.7
2022-09-16T11:27:53.047Z,7
2022-09-16T11:28:53.114Z,5.9
2022-09-16T11:29:53.050Z,4.4
2022-09-16T11:30:53.053Z,5.2
2022-09-16T11:31:53.080Z,3.2
2022-09-16T11:32:53.251Z,2.5
2022-09-16T11:33:53.234Z,0
2022-09-16T11:34:53.055Z,0
2022-09-16T11:35:53.059Z,0
2022-09-16T11:36:53.057Z,2.6
2022-09-16T11:37:53.055Z,2.7
2022-09-16T11:38:53.055Z,7.1000000000000005
2022-09-16T11:39:53.107Z,5.6000000000000005
2022-09-16T11:40:53.062Z,2.7
2022-09-16T11:41:53.054Z,3.1
2022-09-16T11:42:53.071Z,4.6000000000000005
2022-09-16T11:43:53.063Z,1.1
2022-09-16T11:44:53.097Z,0
2022-09-16T11:45:53.064Z,0
2022-09-16T11:46:53.117Z,0
2022-09-16T11:47:53.062Z,4.4
2022-09-16T11:48:53.098Z,7.5
2022-09-16T11:49:53.214Z,3
2022-09-16T11:50:53.068Z,4.1000000000000005
2022-09-16T11:51:53.080Z,8.4
2022-09-16T11:52:53.615Z,3.7
2022-09-16T11:53:53.254Z,5.5
2022-09-16T11:54:53.076Z,6.1000000000000005
2022-09-16T11:55:53.075Z,4.5
2022-09-16T11:56:53.083Z,6.4
2022-09-16T11:57:53.090Z,6
2022-09-16T11:58:53.128Z,3.1
2022-09-16T11:59:53.085Z,5.5
2022-09-16T12:00:53.091Z,9.200000000000001
2022-09-16T12:01:53.136Z,6.800000000000001
2022-09-16T12:02:53.115Z,8.3
2022-09-16T12:03:53.122Z,4.7
2022-09-16T12:04:53.098Z,9.8
2022-09-16T12:05:53.224Z,8
2022-09-16T12:06:53.091Z,4.7
2022-09-16T12:07:53.092Z,5.5
2022-09-16T12:08:53.139Z,3.1
2022-09-16T12:09:53.095Z,6.300000000000001
2022-09-16T12:10:53.089Z,7.4
2022-09-16T12:11:53.099Z,2.4000000000000004
2022-09-16T12:12:53.096Z,2.9000000000000004
2022-09-16T12:14:03.531Z,6.300000000000001
2022-09-16T12:14:53.089Z,1.9000000000000001
2022-09-16T12:15:53.098Z,3.5
2022-09-16T12:16:53.097Z,3.9000000000000004
2022-09-16T12:17:53.104Z,7.300000000000001
2022-09-16T12:18:53.148Z,6.9
2022-09-16T12:19:53.109Z,9.600000000000001
2022-09-16T12:20:53.101Z,4.2
2022-09-16T12:21:57.452Z,6.7
2022-09-16T12:22:53.103Z,2.9000000000000004
2022-09-16T12:23:53.112Z,7.9
2022-09-16T12:24:53.107Z,7.800000000000001
2022-09-16T12:25:53.107Z,6.7
2022-09-16T12:26:53.108Z,7.1000000000000005
2022-09-16T12:27:53.112Z,2.1
2022-09-16T12:28:53.110Z,2.3000000000000003
2022-09-16T12:29:53.119Z,0
2022-09-16T12:30:53.165Z,5.2
2022-09-16T12:31:53.110Z,2.6
2022-09-16T12:32:53.111Z,0.7000000000000001
2022-09-16T12:33:53.152Z,2.2
2022-09-16T12:34:53.113Z,2.3000000000000003
2022-09-16T12:35:53.115Z,8.8
2022-09-16T12:36:53.115Z,1.7000000000000002
2022-09-16T12:37:53.277Z,0
2022-09-16T12:38:53.183Z,5.5
2022-09-16T12:39:53.159Z,10.100000000000001
2022-09-16T12:40:53.121Z,5.2